OIZI  Iran Shahr  Airport

Iranshahr, Iran

Add Bookmark
ICAO OIZI
Type Airport
Status Operational
Latitude
27° 14' 9" N
27.236099
Longitude
60° 43' 12" E
60.720001
Local (DST + 5) UTC (GMT + 4)
Sep 4, 2015 05:59 Sep 4, 2015 01:29
Sunrise-Sunset Local UTC
Begin Civil Twilight 05:42 01:12
Sunrise 06:06 01:36
Sunset 06:45 14:15
End Civil Twilight 07:09 14:39
VFR
VFR
MVFR
MVFR
IFR
IFR
LIFR
LIFR
Unknown
Unavailable

Current Weather

METAR Observed VFR
OIZI 040000Z 04004KT CAVOK 32/10 Q1008 Fri, Sep 4, 2015 @ 00:00 UTC
(1 Hour, 29 Minutes ago)
Visual Flight Rules
Wind Visibility Conditions
040° at 4 knots (7 kph) 10 km or more
  • No significant weather
Temperatures Readings Precipitation
Current Temp
32°C
90°F
Dewpoint
10°C
50°F
Humidity 26%
Altimeter 29.76" Hg
Sea Level Pressure 1,008 mb
Field Elevation
591 m
1,939 ft
None Recorded
-
-

CheckWX.com is intended as a tool to help pilots better visualize weather data. It is not intended as a substitute for an official weather briefing obtained from a Flight Service Station. CheckWX.com does not meet the FAA requirements for an official pre-flight weather briefing. Therefore, it's important that pilots still call and obtain an official FSS pre-flight weather briefing.

© 2007-2015 CheckWX.com
01:29:34 UTC